sensor_id;sensor_type;location;lat;lon;timestamp;pressure;altitude;pressure_sealevel;temperature;humidity
25430;BME280;13360;48.152;-1.788;2023-03-29T00:01:41;102859.53;;;13.97;100.00
25430;BME280;13360;48.152;-1.788;2023-03-29T00:04:06;102859.81;;;13.96;100.00
25430;BME280;13360;48.152;-1.788;2023-03-29T00:06:32;102869.22;;;13.95;100.00
25430;BME280;13360;48.152;-1.788;2023-03-29T00:08:58;102864.78;;;13.94;100.00
25430;BME280;13360;48.152;-1.788;2023-03-29T00:11:25;102870.59;;;13.92;100.00
25430;BME280;13360;48.152;-1.788;2023-03-29T00:13:51;102885.06;;;13.94;100.00
25430;BME280;13360;48.152;-1.788;2023-03-29T00:16:17;102896.72;;;13.91;100.00
25430;BME280;13360;48.152;-1.788;2023-03-29T00:18:43;102892.00;;;13.92;100.00
25430;BME280;13360;48.152;-1.788;2023-03-29T00:21:08;102911.16;;;13.93;100.00
25430;BME280;13360;48.152;-1.788;2023-03-29T00:23:34;102911.16;;;13.93;100.00
25430;BME280;13360;48.152;-1.788;2023-03-29T00:25:59;102922.00;;;13.95;100.00
25430;BME280;13360;48.152;-1.788;2023-03-29T00:28:25;102915.63;;;13.94;100.00
25430;BME280;13360;48.152;-1.788;2023-03-29T00:30:50;102918.63;;;13.88;100.00
25430;BME280;13360;48.152;-1.788;2023-03-29T00:33:16;102932.00;;;13.91;100.00
25430;BME280;13360;48.152;-1.788;2023-03-29T00:35:45;102939.50;;;13.90;100.00
25430;BME280;13360;48.152;-1.788;2023-03-29T00:38:13;102933.94;;;13.90;100.00
25430;BME280;13360;48.152;-1.788;2023-03-29T00:40:44;102951.44;;;13.91;100.00
25430;BME280;13360;48.152;-1.788;2023-03-29T00:43:12;102944.50;;;13.93;100.00
25430;BME280;13360;48.152;-1.788;2023-03-29T00:45:37;102953.94;;;13.92;100.00
25430;BME280;13360;48.152;-1.788;2023-03-29T00:48:15;102963.13;;;13.93;100.00
25430;BME280;13360;48.152;-1.788;2023-03-29T00:50:55;102961.44;;;13.92;100.00
25430;BME280;13360;48.152;-1.788;2023-03-29T00:53:29;102986.41;;;13.87;100.00
25430;BME280;13360;48.152;-1.788;2023-03-29T00:56:05;103007.22;;;13.84;100.00
25430;BME280;13360;48.152;-1.788;2023-03-29T00:59:01;103019.50;;;13.88;100.00
25430;BME280;13360;48.152;-1.788;2023-03-29T01:01:42;103028.41;;;13.90;100.00
25430;BME280;13360;48.152;-1.788;2023-03-29T01:04:26;103041.72;;;13.88;100.00
25430;BME280;13360;48.152;-1.788;2023-03-29T01:07:17;103060.06;;;13.89;100.00
25430;BME280;13360;48.152;-1.788;2023-03-29T01:10:10;103071.75;;;13.91;100.00
25430;BME280;13360;48.152;-1.788;2023-03-29T01:12:42;103077.56;;;13.90;100.00
25430;BME280;13360;48.152;-1.788;2023-03-29T01:15:13;103081.19;;;13.90;100.00
25430;BME280;13360;48.152;-1.788;2023-03-29T01:17:40;103072.00;;;13.90;100.00
25430;BME280;13360;48.152;-1.788;2023-03-29T01:20:15;103085.38;;;13.93;100.00
25430;BME280;13360;48.152;-1.788;2023-03-29T01:28:28;103111.22;;;13.93;100.00
25430;BME280;13360;48.152;-1.788;2023-03-29T01:33:31;103111.75;;;13.90;100.00
25430;BME280;13360;48.152;-1.788;2023-03-29T01:36:08;103128.41;;;13.90;100.00
25430;BME280;13360;48.152;-1.788;2023-03-29T01:38:44;103126.22;;;13.92;100.00
25430;BME280;13360;48.152;-1.788;2023-03-29T01:41:13;103143.97;;;13.91;100.00
25430;BME280;13360;48.152;-1.788;2023-03-29T01:43:55;103154.00;;;13.92;100.00
25430;BME280;13360;48.152;-1.788;2023-03-29T01:46:33;103154.00;;;13.92;100.00
25430;BME280;13360;48.152;-1.788;2023-03-29T01:49:07;103155.34;;;13.90;100.00
25430;BME280;13360;48.152;-1.788;2023-03-29T01:51:42;103171.75;;;13.91;100.00
25430;BME280;13360;48.152;-1.788;2023-03-29T01:54:34;103180.69;;;13.93;100.00
25430;BME280;13360;48.152;-1.788;2023-03-29T01:57:01;103174.03;;;13.94;100.00
25430;BME280;13360;48.152;-1.788;2023-03-29T01:59:30;103179.56;;;13.94;100.00
25430;BME280;13360;48.152;-1.788;2023-03-29T02:01:59;103182.03;;;13.91;100.00
25430;BME280;13360;48.152;-1.788;2023-03-29T02:04:29;103193.47;;;13.94;100.00
25430;BME280;13360;48.152;-1.788;2023-03-29T02:06:57;103189.00;;;13.93;100.00
25430;BME280;13360;48.152;-1.788;2023-03-29T02:09:25;103194.91;;;13.97;100.00
25430;BME280;13360;48.152;-1.788;2023-03-29T02:11:52;103196.78;;;13.91;100.00
25430;BME280;13360;48.152;-1.788;2023-03-29T02:14:17;103198.97;;;13.89;100.00
25430;BME280;13360;48.152;-1.788;2023-03-29T02:16:44;103213.97;;;13.88;100.00
25430;BME280;13360;48.152;-1.788;2023-03-29T02:19:10;103234.00;;;13.90;100.00
25430;BME280;13360;48.152;-1.788;2023-03-29T02:21:59;103232.63;;;13.93;100.00
25430;BME280;13360;48.152;-1.788;2023-03-29T02:24:28;103248.41;;;13.87;100.00
25430;BME280;13360;48.152;-1.788;2023-03-29T02:26:57;103250.66;;;13.90;100.00
25430;BME280;13360;48.152;-1.788;2023-03-29T02:29:22;103262.34;;;13.92;100.00
25430;BME280;13360;48.152;-1.788;2023-03-29T02:31:58;103265.47;;;13.96;100.00
25430;BME280;13360;48.152;-1.788;2023-03-29T02:34:33;103265.72;;;13.94;100.00
25430;BME280;13360;48.152;-1.788;2023-03-29T02:37:09;103270.69;;;13.92;100.00
25430;BME280;13360;48.152;-1.788;2023-03-29T02:39:38;103274.56;;;13.91;100.00
25430;BME280;13360;48.152;-1.788;2023-03-29T02:42:06;103287.81;;;13.84;100.00
25430;BME280;13360;48.152;-1.788;2023-03-29T02:44:35;103308.09;;;13.85;100.00
25430;BME280;13360;48.152;-1.788;2023-03-29T02:47:06;103315.94;;;13.88;100.00
25430;BME280;13360;48.152;-1.788;2023-03-29T02:49:33;103330.13;;;13.91;100.00
25430;BME280;13360;48.152;-1.788;2023-03-29T02:52:06;103332.06;;;13.91;100.00
25430;BME280;13360;48.152;-1.788;2023-03-29T02:54:33;103338.47;;;13.91;100.00
25430;BME280;13360;48.152;-1.788;2023-03-29T02:57:03;103340.41;;;13.91;100.00
25430;BME280;13360;48.152;-1.788;2023-03-29T02:59:32;103348.75;;;13.91;100.00
25430;BME280;13360;48.152;-1.788;2023-03-29T03:01:59;103362.31;;;13.87;100.00
25430;BME280;13360;48.152;-1.788;2023-03-29T03:04:24;103376.78;;;13.89;100.00
25430;BME280;13360;48.152;-1.788;2023-03-29T03:06:50;103385.97;;;13.90;100.00
25430;BME280;13360;48.152;-1.788;2023-03-29T03:09:15;103382.94;;;13.91;100.00
25430;BME280;13360;48.152;-1.788;2023-03-29T03:11:41;103382.69;;;13.93;100.00
25430;BME280;13360;48.152;-1.788;2023-03-29T03:14:06;103386.28;;;13.93;100.00
25430;BME280;13360;48.152;-1.788;2023-03-29T03:16:32;103396.81;;;13.91;100.00
25430;BME280;13360;48.152;-1.788;2023-03-29T03:18:58;103402.97;;;13.93;100.00
25430;BME280;13360;48.152;-1.788;2023-03-29T03:21:23;103401.88;;;13.94;100.00
25430;BME280;13360;48.152;-1.788;2023-03-29T03:23:50;103408.03;;;13.96;100.00
25430;BME280;13360;48.152;-1.788;2023-03-29T03:26:16;103411.31;;;13.93;100.00
25430;BME280;13360;48.152;-1.788;2023-03-29T03:28:42;103408.53;;;13.93;100.00
25430;BME280;13360;48.152;-1.788;2023-03-29T03:31:09;103417.63;;;13.89;100.00
25430;BME280;13360;48.152;-1.788;2023-03-29T03:33:35;103423.50;;;13.92;100.00
25430;BME280;13360;48.152;-1.788;2023-03-29T03:36:00;103427.97;;;13.93;100.00
25430;BME280;13360;48.152;-1.788;2023-03-29T03:38:31;103431.53;;;13.89;100.00
25430;BME280;13360;48.152;-1.788;2023-03-29T03:40:57;103454.59;;;13.89;100.00
25430;BME280;13360;48.152;-1.788;2023-03-29T03:43:23;103476.81;;;13.89;100.00
25430;BME280;13360;48.152;-1.788;2023-03-29T03:45:49;103476.31;;;13.92;100.00
25430;BME280;13360;48.152;-1.788;2023-03-29T03:48:15;103481.88;;;13.92;100.00
25430;BME280;13360;48.152;-1.788;2023-03-29T03:50:47;103479.09;;;13.92;100.00
25430;BME280;13360;48.152;-1.788;2023-03-29T03:53:13;103480.09;;;13.86;100.00
25430;BME280;13360;48.152;-1.788;2023-03-29T03:55:38;103509.56;;;13.87;100.00
25430;BME280;13360;48.152;-1.788;2023-03-29T03:58:03;103511.59;;;13.92;100.00
25430;BME280;13360;48.152;-1.788;2023-03-29T04:00:29;103520.78;;;13.92;100.00
25430;BME280;13360;48.152;-1.788;2023-03-29T04:02:54;103516.53;;;13.73;100.00
25430;BME280;13360;48.152;-1.788;2023-03-29T04:05:20;103552.84;;;13.83;100.00
25430;BME280;13360;48.152;-1.788;2023-03-29T04:07:45;103568.19;;;13.86;100.00
25430;BME280;13360;48.152;-1.788;2023-03-29T04:10:11;103583.25;;;13.90;100.00
25430;BME280;13360;48.152;-1.788;2023-03-29T04:12:38;103597.91;;;13.85;100.00
25430;BME280;13360;48.152;-1.788;2023-03-29T04:15:04;103603.47;;;13.85;100.00
25430;BME280;13360;48.152;-1.788;2023-03-29T04:17:30;103618.44;;;13.84;100.00
25430;BME280;13360;48.152;-1.788;2023-03-29T04:19:55;103627.13;;;13.88;100.00
25430;BME280;13360;48.152;-1.788;2023-03-29T04:22:22;103636.78;;;13.85;100.00
25430;BME280;13360;48.152;-1.788;2023-03-29T04:24:49;103637.88;;;13.84;100.00
25430;BME280;13360;48.152;-1.788;2023-03-29T04:27:15;103662.41;;;13.87;100.00
25430;BME280;13360;48.152;-1.788;2023-03-29T04:29:40;103646.00;;;13.74;100.00
25430;BME280;13360;48.152;-1.788;2023-03-29T04:32:09;103661.72;;;13.80;100.00
25430;BME280;13360;48.152;-1.788;2023-03-29T04:34:36;103684.03;;;13.85;100.00
25430;BME280;13360;48.152;-1.788;2023-03-29T04:37:01;103682.34;;;13.84;100.00
25430;BME280;13360;48.152;-1.788;2023-03-29T04:39:27;103681.59;;;13.89;100.00
25430;BME280;13360;48.152;-1.788;2023-03-29T04:41:58;103673.50;;;13.87;100.00
25430;BME280;13360;48.152;-1.788;2023-03-29T04:44:24;103668.63;;;13.78;100.00
25430;BME280;13360;48.152;-1.788;2023-03-29T04:46:51;103690.69;;;13.84;100.00
25430;BME280;13360;48.152;-1.788;2023-03-29T04:49:16;103692.38;;;13.85;100.00
25430;BME280;13360;48.152;-1.788;2023-03-29T04:51:41;103696.75;;;13.81;100.00
25430;BME280;13360;48.152;-1.788;2023-03-29T04:54:07;103720.66;;;13.82;100.00
25430;BME280;13360;48.152;-1.788;2023-03-29T04:56:32;103737.31;;;13.82;100.00
25430;BME280;13360;48.152;-1.788;2023-03-29T04:58:58;103740.69;;;13.84;100.00
25430;BME280;13360;48.152;-1.788;2023-03-29T05:01:23;103741.44;;;13.80;100.00
25430;BME280;13360;48.152;-1.788;2023-03-29T05:03:48;103755.94;;;13.82;100.00
25430;BME280;13360;48.152;-1.788;2023-03-29T05:06:14;103761.50;;;13.82;100.00
25430;BME280;13360;48.152;-1.788;2023-03-29T05:08:39;103784.81;;;13.81;100.00
25430;BME280;13360;48.152;-1.788;2023-03-29T05:11:08;103793.25;;;13.74;100.00
25430;BME280;13360;48.152;-1.788;2023-03-29T05:13:35;103800.75;;;13.73;100.00
25430;BME280;13360;48.152;-1.788;2023-03-29T05:16:01;103826.97;;;13.78;100.00
25430;BME280;13360;48.152;-1.788;2023-03-29T05:18:27;103828.16;;;13.70;100.00
25430;BME280;13360;48.152;-1.788;2023-03-29T05:20:54;103833.25;;;13.73;100.00
25430;BME280;13360;48.152;-1.788;2023-03-29T05:23:20;103835.91;;;13.68;100.00
25430;BME280;13360;48.152;-1.788;2023-03-29T05:25:49;103840.47;;;13.74;100.00
25430;BME280;13360;48.152;-1.788;2023-03-29T05:28:15;103848.81;;;13.74;100.00
25430;BME280;13360;48.152;-1.788;2023-03-29T05:30:40;103875.53;;;13.75;100.00
25430;BME280;13360;48.152;-1.788;2023-03-29T05:33:06;103872.97;;;13.73;100.00
25430;BME280;13360;48.152;-1.788;2023-03-29T05:35:32;103873.13;;;13.79;100.00
25430;BME280;13360;48.152;-1.788;2023-03-29T05:37:57;103866.72;;;13.78;100.00
25430;BME280;13360;48.152;-1.788;2023-03-29T05:40:24;103859.94;;;13.74;100.00
25430;BME280;13360;48.152;-1.788;2023-03-29T05:42:50;103834.22;;;13.67;100.00
25430;BME280;13360;48.152;-1.788;2023-03-29T05:45:16;103826.63;;;13.62;100.00
25430;BME280;13360;48.152;-1.788;2023-03-29T05:47:41;103824.69;;;13.63;100.00
25430;BME280;13360;48.152;-1.788;2023-03-29T05:50:08;103813.56;;;13.63;100.00
25430;BME280;13360;48.152;-1.788;2023-03-29T05:52:34;103792.44;;;13.62;100.00
25430;BME280;13360;48.152;-1.788;2023-03-29T05:55:01;103771.31;;;13.61;100.00
25430;BME280;13360;48.152;-1.788;2023-03-29T05:57:26;103749.59;;;13.58;100.00
25430;BME280;13360;48.152;-1.788;2023-03-29T05:59:52;103727.88;;;13.55;100.00
25430;BME280;13360;48.152;-1.788;2023-03-29T06:02:17;103701.19;;;13.54;100.00
25430;BME280;13360;48.152;-1.788;2023-03-29T06:04:42;103658.44;;;13.43;100.00
25430;BME280;13360;48.152;-1.788;2023-03-29T06:07:09;103640.19;;;13.47;100.00
25430;BME280;13360;48.152;-1.788;2023-03-29T06:09:36;103606.38;;;13.50;100.00
25430;BME280;13360;48.152;-1.788;2023-03-29T06:12:03;103556.91;;;13.47;100.00
25430;BME280;13360;48.152;-1.788;2023-03-29T06:14:29;103510.19;;;13.44;100.00
25430;BME280;13360;48.152;-1.788;2023-03-29T06:16:55;103482.19;;;13.46;100.00
25430;BME280;13360;48.152;-1.788;2023-03-29T06:19:21;103455.59;;;13.50;100.00
25430;BME280;13360;48.152;-1.788;2023-03-29T06:21:46;103423.78;;;13.40;100.00
25430;BME280;13360;48.152;-1.788;2023-03-29T06:24:12;103388.28;;;13.42;100.00
25430;BME280;13360;48.152;-1.788;2023-03-29T06:26:38;103371.69;;;13.48;100.00
25430;BME280;13360;48.152;-1.788;2023-03-29T06:29:03;103347.88;;;13.52;100.00
25430;BME280;13360;48.152;-1.788;2023-03-29T06:31:28;103320.09;;;13.52;100.00
25430;BME280;13360;48.152;-1.788;2023-03-29T06:33:55;103295.63;;;13.49;100.00
25430;BME280;13360;48.152;-1.788;2023-03-29T06:36:22;103276.53;;;13.52;100.00
25430;BME280;13360;48.152;-1.788;2023-03-29T06:38:48;103252.38;;;13.53;100.00
25430;BME280;13360;48.152;-1.788;2023-03-29T06:41:13;103238.31;;;13.59;100.00
25430;BME280;13360;48.152;-1.788;2023-03-29T06:43:39;103211.91;;;13.57;100.00
25430;BME280;13360;48.152;-1.788;2023-03-29T06:46:04;103188.72;;;13.68;100.00
25430;BME280;13360;48.152;-1.788;2023-03-29T06:48:39;103175.97;;;13.72;100.00
25430;BME280;13360;48.152;-1.788;2023-03-29T06:51:05;103134.25;;;13.67;100.00
25430;BME280;13360;48.152;-1.788;2023-03-29T06:53:32;103108.75;;;13.70;100.00
25430;BME280;13360;48.152;-1.788;2023-03-29T06:55:57;103083.47;;;13.71;100.00
25430;BME280;13360;48.152;-1.788;2023-03-29T06:58:23;103047.06;;;13.68;100.00
25430;BME280;13360;48.152;-1.788;2023-03-29T07:00:49;103022.72;;;13.75;100.00
25430;BME280;13360;48.152;-1.788;2023-03-29T07:03:15;102977.06;;;13.66;100.00
25430;BME280;13360;48.152;-1.788;2023-03-29T07:05:45;102957.84;;;13.59;100.00
25430;BME280;13360;48.152;-1.788;2023-03-29T07:08:11;102949.81;;;13.63;100.00
25430;BME280;13360;48.152;-1.788;2023-03-29T07:10:41;102923.44;;;13.60;100.00
25430;BME280;13360;48.152;-1.788;2023-03-29T07:13:09;102891.41;;;13.53;100.00
25430;BME280;13360;48.152;-1.788;2023-03-29T07:15:38;102877.03;;;13.56;100.00
25430;BME280;13360;48.152;-1.788;2023-03-29T07:18:03;102864.31;;;13.65;100.00
25430;BME280;13360;48.152;-1.788;2023-03-29T07:20:30;102851.00;;;13.67;100.00
25430;BME280;13360;48.152;-1.788;2023-03-29T07:22:56;102827.63;;;13.63;100.00
25430;BME280;13360;48.152;-1.788;2023-03-29T07:25:23;102810.72;;;13.69;100.00
25430;BME280;13360;48.152;-1.788;2023-03-29T07:27:49;102796.59;;;13.71;100.00
25430;BME280;13360;48.152;-1.788;2023-03-29T07:30:21;102770.47;;;13.72;100.00
25430;BME280;13360;48.152;-1.788;2023-03-29T07:32:49;102762.19;;;13.77;100.00
25430;BME280;13360;48.152;-1.788;2023-03-29T07:35:15;102747.78;;;13.80;100.00
25430;BME280;13360;48.152;-1.788;2023-03-29T07:37:42;102738.06;;;13.83;100.00
25430;BME280;13360;48.152;-1.788;2023-03-29T07:40:11;102723.91;;;13.84;100.00
25430;BME280;13360;48.152;-1.788;2023-03-29T07:42:41;102689.44;;;13.80;100.00
25430;BME280;13360;48.152;-1.788;2023-03-29T07:45:09;102681.09;;;13.80;100.00
25430;BME280;13360;48.152;-1.788;2023-03-29T07:47:34;102649.72;;;13.80;100.00
25430;BME280;13360;48.152;-1.788;2023-03-29T07:50:00;102645.84;;;13.81;100.00
25430;BME280;13360;48.152;-1.788;2023-03-29T07:52:26;102622.44;;;13.66;100.00
25430;BME280;13360;48.152;-1.788;2023-03-29T07:54:54;102610.22;;;13.72;100.00
25430;BME280;13360;48.152;-1.788;2023-03-29T07:57:20;102602.78;;;13.78;100.00
25430;BME280;13360;48.152;-1.788;2023-03-29T07:59:46;102596.13;;;13.84;100.00
25430;BME280;13360;48.152;-1.788;2023-03-29T08:02:11;102564.97;;;13.72;100.00
25430;BME280;13360;48.152;-1.788;2023-03-29T08:04:37;102535.25;;;13.67;100.00
25430;BME280;13360;48.152;-1.788;2023-03-29T08:07:02;102521.66;;;13.71;100.00
25430;BME280;13360;48.152;-1.788;2023-03-29T08:09:28;102522.78;;;13.80;100.00
25430;BME280;13360;48.152;-1.788;2023-03-29T08:11:53;102509.47;;;13.82;100.00
25430;BME280;13360;48.152;-1.788;2023-03-29T08:14:18;102513.91;;;13.88;100.00
25430;BME280;13360;48.152;-1.788;2023-03-29T08:16:46;102512.78;;;13.89;100.00
25430;BME280;13360;48.152;-1.788;2023-03-29T08:19:11;102498.06;;;13.89;100.00
25430;BME280;13360;48.152;-1.788;2023-03-29T08:21:38;102485.00;;;13.89;100.00
25430;BME280;13360;48.152;-1.788;2023-03-29T08:24:04;102468.06;;;13.91;100.00
25430;BME280;13360;48.152;-1.788;2023-03-29T08:26:29;102448.91;;;13.89;100.00
25430;BME280;13360;48.152;-1.788;2023-03-29T08:28:54;102404.19;;;13.86;100.00
25430;BME280;13360;48.152;-1.788;2023-03-29T08:31:20;102401.13;;;13.92;100.00
25430;BME280;13360;48.152;-1.788;2023-03-29T08:33:46;102371.13;;;13.89;100.00
25430;BME280;13360;48.152;-1.788;2023-03-29T08:36:11;102348.06;;;13.94;100.00
25430;BME280;13360;48.152;-1.788;2023-03-29T08:38:37;102343.09;;;13.96;100.00
25430;BME280;13360;48.152;-1.788;2023-03-29T08:44:14;102293.84;;;14.12;100.00
25430;BME280;13360;48.152;-1.788;2023-03-29T08:49:17;102271.03;;;14.20;100.00
25430;BME280;13360;48.152;-1.788;2023-03-29T08:51:49;102224.94;;;14.09;100.00
25430;BME280;13360;48.152;-1.788;2023-03-29T08:54:22;102169.38;;;14.09;100.00
25430;BME280;13360;48.152;-1.788;2023-03-29T08:56:51;102136.53;;;14.16;100.00
25430;BME280;13360;48.152;-1.788;2023-03-29T08:59:26;102150.13;;;14.22;100.00
25430;BME280;13360;48.152;-1.788;2023-03-29T09:01:54;102129.53;;;14.28;100.00
25430;BME280;13360;48.152;-1.788;2023-03-29T09:04:32;102090.63;;;14.28;100.00
25430;BME280;13360;48.152;-1.788;2023-03-29T09:07:01;102025.88;;;14.28;100.00
25430;BME280;13360;48.152;-1.788;2023-03-29T09:09:33;102015.53;;;14.33;100.00
25430;BME280;13360;48.152;-1.788;2023-03-29T09:20:30;101899.28;;;14.70;100.00
25430;BME280;13360;48.152;-1.788;2023-03-29T09:28:29;101708.41;;;15.11;100.00
25430;BME280;13360;48.152;-1.788;2023-03-29T09:31:04;101638.94;;;15.20;100.00
25430;BME280;13360;48.152;-1.788;2023-03-29T09:36:15;101529.53;;;15.24;100.00
25430;BME280;13360;48.152;-1.788;2023-03-29T09:38:44;101477.78;;;15.23;100.00
25430;BME280;13360;48.152;-1.788;2023-03-29T09:41:32;101457.16;;;15.24;100.00
25430;BME280;13360;48.152;-1.788;2023-03-29T09:44:02;101447.56;;;15.17;100.00
25430;BME280;13360;48.152;-1.788;2023-03-29T09:46:37;101403.97;;;15.12;100.00
25430;BME280;13360;48.152;-1.788;2023-03-29T09:49:05;101400.25;;;15.17;100.00
25430;BME280;13360;48.152;-1.788;2023-03-29T09:51:34;101415.50;;;15.19;100.00
25430;BME280;13360;48.152;-1.788;2023-03-29T09:54:00;101418.81;;;15.21;100.00
25430;BME280;13360;48.152;-1.788;2023-03-29T09:56:26;101401.59;;;15.19;100.00
25430;BME280;13360;48.152;-1.788;2023-03-29T09:58:52;101396.56;;;15.21;100.00
25430;BME280;13360;48.152;-1.788;2023-03-29T10:01:18;101391.72;;;15.13;100.00
25430;BME280;13360;48.152;-1.788;2023-03-29T10:03:49;101356.78;;;15.21;100.00
25430;BME280;13360;48.152;-1.788;2023-03-29T10:06:16;101317.50;;;15.22;100.00
25430;BME280;13360;48.152;-1.788;2023-03-29T10:08:49;101301.31;;;15.24;100.00
25430;BME280;13360;48.152;-1.788;2023-03-29T10:11:29;101277.94;;;15.25;100.00
25430;BME280;13360;48.152;-1.788;2023-03-29T10:14:01;101240.44;;;15.23;100.00
25430;BME280;13360;48.152;-1.788;2023-03-29T10:16:32;101222.91;;;15.22;100.00
25430;BME280;13360;48.152;-1.788;2023-03-29T10:19:13;101236.56;;;15.33;100.00
25430;BME280;13360;48.152;-1.788;2023-03-29T10:21:40;101224.53;;;15.46;100.00
25430;BME280;13360;48.152;-1.788;2023-03-29T10:24:08;101215.88;;;15.47;100.00
25430;BME280;13360;48.152;-1.788;2023-03-29T10:26:35;101217.88;;;15.55;100.00
25430;BME280;13360;48.152;-1.788;2023-03-29T10:29:04;101199.53;;;15.54;100.00
25430;BME280;13360;48.152;-1.788;2023-03-29T10:31:32;101162.47;;;15.45;100.00
25430;BME280;13360;48.152;-1.788;2023-03-29T10:34:03;101188.84;;;15.48;100.00
25430;BME280;13360;48.152;-1.788;2023-03-29T10:36:30;101166.09;;;15.46;100.00
25430;BME280;13360;48.152;-1.788;2023-03-29T10:38:58;101178.06;;;15.55;100.00
25430;BME280;13360;48.152;-1.788;2023-03-29T10:41:25;101170.84;;;15.54;100.00
25430;BME280;13360;48.152;-1.788;2023-03-29T10:43:51;101175.50;;;15.59;100.00
25430;BME280;13360;48.152;-1.788;2023-03-29T10:48:55;101162.94;;;15.70;100.00
25430;BME280;13360;48.152;-1.788;2023-03-29T10:51:22;101158.53;;;15.77;100.00
25430;BME280;13360;48.152;-1.788;2023-03-29T10:53:48;101152.31;;;15.80;100.00
25430;BME280;13360;48.152;-1.788;2023-03-29T11:01:26;101155.50;;;15.96;100.00
25430;BME280;13360;48.152;-1.788;2023-03-29T11:04:05;101153.38;;;16.02;100.00
25430;BME280;13360;48.152;-1.788;2023-03-29T11:06:36;101129.00;;;16.07;100.00
25430;BME280;13360;48.152;-1.788;2023-03-29T11:15:02;101128.22;;;16.24;100.00
25430;BME280;13360;48.152;-1.788;2023-03-29T11:17:54;101118.88;;;16.29;100.00
25430;BME280;13360;48.152;-1.788;2023-03-29T11:20:33;101143.81;;;16.34;100.00
25430;BME280;13360;48.152;-1.788;2023-03-29T11:23:24;101131.00;;;16.41;100.00
25430;BME280;13360;48.152;-1.788;2023-03-29T11:31:17;101123.66;;;16.54;100.00
25430;BME280;13360;48.152;-1.788;2023-03-29T11:36:33;101124.69;;;16.67;100.00
25430;BME280;13360;48.152;-1.788;2023-03-29T11:39:10;101150.59;;;16.76;100.00
25430;BME280;13360;48.152;-1.788;2023-03-29T11:41:42;101186.00;;;16.84;100.00
25430;BME280;13360;48.152;-1.788;2023-03-29T11:44:16;101200.63;;;16.98;100.00
25430;BME280;13360;48.152;-1.788;2023-03-29T11:46:56;101198.81;;;17.02;100.00
25430;BME280;13360;48.152;-1.788;2023-03-29T11:49:59;101139.22;;;17.07;100.00
25430;BME280;13360;48.152;-1.788;2023-03-29T11:52:38;101093.13;;;17.10;100.00
25430;BME280;13360;48.152;-1.788;2023-03-29T11:55:14;101070.59;;;17.06;100.00
25430;BME280;13360;48.152;-1.788;2023-03-29T11:57:47;101072.44;;;17.11;100.00
25430;BME280;13360;48.152;-1.788;2023-03-29T12:00:22;101095.06;;;17.18;100.00
25430;BME280;13360;48.152;-1.788;2023-03-29T12:05:55;101097.00;;;17.26;100.00
25430;BME280;13360;48.152;-1.788;2023-03-29T12:08:30;101070.72;;;17.27;100.00
25430;BME280;13360;48.152;-1.788;2023-03-29T12:11:10;101064.66;;;17.25;100.00
25430;BME280;13360;48.152;-1.788;2023-03-29T12:13:44;101098.47;;;17.32;100.00
25430;BME280;13360;48.152;-1.788;2023-03-29T12:16:34;101091.06;;;17.36;100.00
25430;BME280;13360;48.152;-1.788;2023-03-29T12:19:29;101108.78;;;17.40;100.00
25430;BME280;13360;48.152;-1.788;2023-03-29T12:21:56;101136.16;;;17.47;100.00
25430;BME280;13360;48.152;-1.788;2023-03-29T12:24:25;101121.38;;;17.55;100.00
25430;BME280;13360;48.152;-1.788;2023-03-29T12:27:20;101060.06;;;17.58;100.00
25430;BME280;13360;48.152;-1.788;2023-03-29T12:30:04;101046.06;;;17.67;100.00
25430;BME280;13360;48.152;-1.788;2023-03-29T12:32:52;101026.50;;;17.76;100.00
25430;BME280;13360;48.152;-1.788;2023-03-29T12:37:57;100994.00;;;17.62;100.00
25430;BME280;13360;48.152;-1.788;2023-03-29T12:40:27;101020.63;;;17.68;100.00
25430;BME280;13360;48.152;-1.788;2023-03-29T12:43:06;100981.94;;;17.79;100.00
25430;BME280;13360;48.152;-1.788;2023-03-29T12:45:42;100979.97;;;17.80;100.00
25430;BME280;13360;48.152;-1.788;2023-03-29T12:48:17;100991.13;;;17.80;100.00
25430;BME280;13360;48.152;-1.788;2023-03-29T12:50:50;100971.84;;;17.87;100.00
25430;BME280;13360;48.152;-1.788;2023-03-29T12:53:37;100952.97;;;17.84;100.00
25430;BME280;13360;48.152;-1.788;2023-03-29T13:03:47;100905.69;;;18.00;100.00
25430;BME280;13360;48.152;-1.788;2023-03-29T13:09:17;100908.06;;;17.89;100.00
25430;BME280;13360;48.152;-1.788;2023-03-29T13:11:53;100895.72;;;17.90;100.00
25430;BME280;13360;48.152;-1.788;2023-03-29T13:14:24;100884.69;;;17.93;100.00
25430;BME280;13360;48.152;-1.788;2023-03-29T13:16:50;100887.34;;;17.90;100.00
25430;BME280;13360;48.152;-1.788;2023-03-29T13:19:42;100877.81;;;17.91;100.00
25430;BME280;13360;48.152;-1.788;2023-03-29T13:22:55;100878.91;;;17.98;100.00
25430;BME280;13360;48.152;-1.788;2023-03-29T13:30:50;100871.34;;;18.11;100.00
25430;BME280;13360;48.152;-1.788;2023-03-29T13:36:33;100879.41;;;18.13;100.00
25430;BME280;13360;48.152;-1.788;2023-03-29T13:39:05;100853.91;;;18.14;100.00
25430;BME280;13360;48.152;-1.788;2023-03-29T13:41:42;100887.66;;;18.09;100.00
25430;BME280;13360;48.152;-1.788;2023-03-29T13:44:39;100849.72;;;18.20;100.00
25430;BME280;13360;48.152;-1.788;2023-03-29T13:47:12;100859.75;;;18.21;100.00
25430;BME280;13360;48.152;-1.788;2023-03-29T13:49:42;100855.78;;;18.22;100.00
25430;BME280;13360;48.152;-1.788;2023-03-29T13:52:17;100847.97;;;18.16;100.00
25430;BME280;13360;48.152;-1.788;2023-03-29T13:54:56;100840.41;;;18.16;100.00
25430;BME280;13360;48.152;-1.788;2023-03-29T13:57:33;100871.97;;;18.17;100.00
25430;BME280;13360;48.152;-1.788;2023-03-29T14:00:30;100888.41;;;18.18;100.00
25430;BME280;13360;48.152;-1.788;2023-03-29T14:02:58;100864.31;;;18.26;100.00